createdAt,value
2018-06-17T00:00:17.943Z,4.50
2018-06-17T00:02:46.108Z,4.45
2018-06-17T00:05:13.576Z,4.62
2018-06-17T00:07:41.045Z,4.80
2018-06-17T00:10:08.533Z,4.82
2018-06-17T00:12:35.994Z,4.25
2018-06-17T00:15:03.538Z,4.30
2018-06-17T00:17:31.027Z,4.18
2018-06-17T00:19:58.781Z,4.25
2018-06-17T00:22:26.261Z,5.03
2018-06-17T00:24:53.985Z,4.00
2018-06-17T00:27:21.403Z,4.95
2018-06-17T00:29:48.839Z,4.35
2018-06-17T00:32:16.315Z,4.65
2018-06-17T00:34:43.763Z,6.20
2018-06-17T00:37:11.251Z,4.82
2018-06-17T00:39:38.729Z,4.70
2018-06-17T00:42:06.185Z,3.75
2018-06-17T00:44:33.871Z,4.28
2018-06-17T00:47:01.384Z,5.07
2018-06-17T00:49:28.884Z,3.60
2018-06-17T00:51:56.342Z,4.15
2018-06-17T00:54:23.844Z,4.95
2018-06-17T00:56:51.282Z,3.85
2018-06-17T00:59:18.696Z,5.07
2018-06-17T01:01:46.344Z,4.10
2018-06-17T01:04:13.819Z,4.40
2018-06-17T01:06:41.324Z,4.80
2018-06-17T01:09:08.788Z,5.47
2018-06-17T01:11:36.597Z,5.75
2018-06-17T01:14:04.073Z,4.80
2018-06-17T01:16:31.557Z,5.32
2018-06-17T01:18:59.006Z,5.25
2018-06-17T01:21:26.500Z,5.78
2018-06-17T01:23:53.961Z,4.57
2018-06-17T01:26:21.749Z,4.40
2018-06-17T01:28:49.203Z,5.20
2018-06-17T01:31:16.739Z,5.80
2018-06-17T01:33:44.234Z,4.97
2018-06-17T01:36:11.667Z,5.05
2018-06-17T01:38:39.189Z,5.80
2018-06-17T01:41:06.736Z,4.87
2018-06-17T01:43:34.163Z,4.35
2018-06-17T01:46:01.688Z,4.45
2018-06-17T01:48:29.121Z,5.53
2018-06-17T01:50:56.593Z,5.53
2018-06-17T01:53:24.184Z,5.10
2018-06-17T01:55:51.622Z,4.70
2018-06-17T01:58:19.182Z,4.80
2018-06-17T02:00:46.631Z,4.20
2018-06-17T02:03:14.070Z,5.03
2018-06-17T02:08:48.568Z,6.90
2018-06-17T02:11:33.918Z,5.75
2018-06-17T02:14:01.374Z,4.70
2018-06-17T02:16:28.837Z,4.55
2018-06-17T02:18:56.288Z,4.22
2018-06-17T02:21:23.768Z,3.70
2018-06-17T02:23:51.247Z,4.22
2018-06-17T02:26:18.728Z,4.82
2018-06-17T02:28:46.381Z,4.45
2018-06-17T02:31:13.783Z,4.72
2018-06-17T02:33:41.226Z,4.32
2018-06-17T02:36:08.756Z,4.43
2018-06-17T02:38:36.252Z,5.20
2018-06-17T02:41:03.809Z,4.87
2018-06-17T02:43:31.338Z,5.45
2018-06-17T02:45:58.789Z,4.12
2018-06-17T02:51:34.179Z,6.07
2018-06-17T02:54:16.590Z,4.45
2018-06-17T02:56:44.037Z,3.53
2018-06-17T02:59:11.477Z,5.68
2018-06-17T03:01:38.930Z,3.70
2018-06-17T03:04:06.394Z,3.22
2018-06-17T03:06:33.829Z,4.55
2018-06-17T03:09:01.286Z,5.55
2018-06-17T03:11:28.778Z,4.47
2018-06-17T03:13:56.241Z,3.87
2018-06-17T03:16:23.806Z,4.25
2018-06-17T03:18:51.280Z,4.87
2018-06-17T03:21:18.905Z,5.32
2018-06-17T03:23:46.354Z,4.18
2018-06-17T03:29:22.670Z,6.05
2018-06-17T03:31:50.171Z,5.30
2018-06-17T03:34:17.609Z,4.37
2018-06-17T03:36:45.629Z,4.10
2018-06-17T03:39:13.094Z,5.47
2018-06-17T03:41:40.553Z,4.85
2018-06-17T03:44:07.986Z,4.60
2018-06-17T03:46:35.479Z,5.03
2018-06-17T03:49:02.921Z,5.22
2018-06-17T03:51:30.461Z,5.05
2018-06-17T03:53:57.914Z,3.95
2018-06-17T03:56:25.384Z,4.37
2018-06-17T03:58:52.839Z,5.15
2018-06-17T04:01:20.304Z,4.03
2018-06-17T04:03:47.783Z,4.32
2018-06-17T04:06:15.267Z,5.05
2018-06-17T04:08:42.740Z,4.53
2018-06-17T04:11:10.336Z,3.62
2018-06-17T04:13:37.784Z,5.20
2018-06-17T04:16:05.323Z,4.97
2018-06-17T04:18:32.765Z,5.75
2018-06-17T04:21:00.222Z,5.25
2018-06-17T04:23:27.701Z,4.37
2018-06-17T04:25:55.160Z,4.87
2018-06-17T04:28:22.589Z,4.68
2018-06-17T04:30:50.045Z,5.53
2018-06-17T04:33:17.450Z,4.62
2018-06-17T04:35:44.984Z,4.25
2018-06-17T04:38:12.463Z,4.35
2018-06-17T04:40:39.910Z,3.67
2018-06-17T04:43:07.438Z,5.22
2018-06-17T04:45:34.933Z,3.55
2018-06-17T04:48:02.382Z,4.53
2018-06-17T04:50:29.799Z,4.18
2018-06-17T04:52:57.296Z,4.60
2018-06-17T04:55:24.903Z,5.87
2018-06-17T04:57:52.373Z,4.97
2018-06-17T05:00:19.874Z,4.53
2018-06-17T05:02:47.369Z,4.60
2018-06-17T05:05:14.799Z,4.95
2018-06-17T05:07:42.288Z,4.50
2018-06-17T05:10:09.719Z,5.05
2018-06-17T05:12:37.210Z,3.97
2018-06-17T05:15:04.878Z,5.50
2018-06-17T05:17:32.279Z,4.90
2018-06-17T05:19:59.747Z,5.35
2018-06-17T05:22:27.223Z,4.20
2018-06-17T05:24:54.740Z,5.53
2018-06-17T05:27:22.168Z,5.30
2018-06-17T05:29:49.723Z,4.37
2018-06-17T05:32:17.199Z,4.93
2018-06-17T05:34:44.661Z,4.78
2018-06-17T05:37:12.131Z,4.50
2018-06-17T05:39:39.561Z,4.60
2018-06-17T05:42:07.008Z,5.15
2018-06-17T05:44:34.411Z,4.43
2018-06-17T05:47:02.041Z,4.12
2018-06-17T05:49:29.526Z,4.97
2018-06-17T05:51:56.976Z,4.47
2018-06-17T05:54:24.469Z,4.03
2018-06-17T05:56:52.012Z,4.40
2018-06-17T05:59:19.451Z,4.72
2018-06-17T06:01:46.878Z,6.53
2018-06-17T06:04:14.352Z,4.55
2018-06-17T06:06:41.843Z,4.90
2018-06-17T06:09:09.337Z,4.85
2018-06-17T06:11:36.837Z,4.45
2018-06-17T06:14:04.466Z,4.90
2018-06-17T06:16:32.037Z,4.20
2018-06-17T06:18:59.458Z,4.70
2018-06-17T06:21:26.916Z,4.22
2018-06-17T06:23:54.402Z,5.07
2018-06-17T06:26:21.917Z,6.35
2018-06-17T06:28:49.515Z,5.45
2018-06-17T06:31:17.041Z,5.78
2018-06-17T06:33:44.498Z,5.50
2018-06-17T06:36:11.933Z,5.62
2018-06-17T06:38:39.390Z,5.20
2018-06-17T06:41:07.511Z,5.68
2018-06-17T06:43:35.028Z,4.70
2018-06-17T06:46:02.492Z,4.80
2018-06-17T06:48:29.959Z,5.00
2018-06-17T06:50:57.441Z,7.15
2018-06-17T06:53:24.941Z,4.68
2018-06-17T06:55:52.489Z,4.53
2018-06-17T06:58:19.978Z,5.93
2018-06-17T07:00:47.755Z,6.75
2018-06-17T07:06:31.441Z,6.62
2018-06-17T07:09:08.587Z,5.37
2018-06-17T07:11:36.145Z,5.90
2018-06-17T07:14:03.597Z,5.10
2018-06-17T07:19:43.207Z,7.25
2018-06-17T07:22:11.644Z,5.62
2018-06-17T07:24:39.105Z,7.00
2018-06-17T07:27:18.374Z,4.75
2018-06-17T07:29:45.883Z,5.85
2018-06-17T07:32:13.318Z,5.32
2018-06-17T07:34:40.719Z,4.43
2018-06-17T07:42:02.238Z,4.50
2018-06-17T07:44:29.679Z,3.97
2018-06-17T07:46:57.085Z,4.65
2018-06-17T07:52:46.149Z,4.65
2018-06-17T07:55:13.815Z,3.90
2018-06-17T07:57:41.873Z,3.60
2018-06-17T08:00:09.424Z,3.20
2018-06-17T08:02:36.907Z,3.70
2018-06-17T08:07:31.343Z,4.85
2018-06-17T08:09:58.840Z,5.68
2018-06-17T08:12:26.543Z,3.80
2018-06-17T08:14:54.065Z,2.80
2018-06-17T08:17:21.530Z,4.00
2018-06-17T08:19:49.014Z,3.75
2018-06-17T09:08:50.402Z,3.08
2018-06-17T09:28:27.271Z,4.10
2018-06-17T09:30:54.912Z,3.72
2018-06-17T09:33:22.490Z,4.60
2018-06-17T09:38:16.980Z,3.40
2018-06-17T09:40:44.463Z,3.05
2018-06-17T09:43:11.961Z,3.40
2018-06-17T09:45:39.624Z,4.47
2018-06-17T09:50:34.061Z,3.75
2018-06-17T09:53:01.596Z,4.33
2018-06-17T09:55:29.068Z,2.50
2018-06-17T09:57:56.604Z,2.80
2018-06-17T10:00:24.104Z,2.55
2018-06-17T10:02:51.602Z,3.87
2018-06-17T10:05:19.061Z,3.58
2018-06-17T10:07:46.617Z,3.80
2018-06-17T10:10:14.171Z,3.72
2018-06-17T10:12:41.799Z,2.90
2018-06-17T10:15:09.363Z,4.00
2018-06-17T10:17:36.804Z,3.45
2018-06-17T10:20:04.261Z,3.40
2018-06-17T10:27:26.105Z,3.80
2018-06-17T10:29:53.574Z,3.65
2018-06-17T10:32:21.111Z,5.35
2018-06-17T10:37:22.447Z,2.83
2018-06-17T10:39:50.189Z,3.40
2018-06-17T10:42:17.656Z,2.85
2018-06-17T10:44:45.136Z,3.03
2018-06-17T10:47:12.795Z,2.55
2018-06-17T10:49:40.300Z,2.95
2018-06-17T10:52:07.752Z,3.75
2018-06-17T10:54:35.299Z,3.35
2018-06-17T10:57:02.755Z,2.00
2018-06-17T10:59:30.475Z,2.40
2018-06-17T11:01:58.247Z,3.33
2018-06-17T11:04:25.650Z,2.70
2018-06-17T11:06:53.155Z,2.53
2018-06-17T11:09:20.689Z,3.05
2018-06-17T11:11:48.109Z,3.20
2018-06-17T11:14:15.569Z,5.05
2018-06-17T11:16:43.432Z,4.57
2018-06-17T11:19:10.908Z,2.95
2018-06-17T11:21:38.379Z,4.28
2018-06-17T11:24:05.881Z,3.67
2018-06-17T11:26:33.432Z,2.90
2018-06-17T11:29:00.880Z,4.07
2018-06-17T11:31:28.377Z,4.32
2018-06-17T11:33:55.926Z,3.58
2018-06-17T11:36:23.493Z,3.85
2018-06-17T11:38:50.992Z,2.15
2018-06-17T11:41:18.958Z,3.78
2018-06-17T11:43:46.633Z,4.20
2018-06-17T11:46:14.155Z,4.53
2018-06-17T11:48:41.576Z,3.85
2018-06-17T11:51:09.181Z,4.30
2018-06-17T11:53:36.656Z,3.53
2018-06-17T11:56:04.143Z,2.90
2018-06-17T11:58:31.601Z,2.47
2018-06-17T12:00:59.051Z,3.58
2018-06-17T12:03:27.281Z,3.80
2018-06-17T12:05:54.752Z,6.60
2018-06-17T12:08:22.309Z,3.80
2018-06-17T12:10:49.771Z,3.50
2018-06-17T12:13:17.213Z,3.87
2018-06-17T12:15:44.847Z,3.90
2018-06-17T12:18:12.302Z,3.60
2018-06-17T12:20:39.811Z,3.65
2018-06-17T12:23:07.324Z,3.28
2018-06-17T12:25:34.771Z,3.55
2018-06-17T12:28:02.229Z,4.70
2018-06-17T12:30:29.665Z,4.20
2018-06-17T12:32:57.537Z,3.25
2018-06-17T12:35:25.668Z,3.90
2018-06-17T12:37:53.156Z,3.78
2018-06-17T12:40:20.766Z,4.25
2018-06-17T12:42:48.208Z,4.18
2018-06-17T12:45:15.685Z,4.65
2018-06-17T12:47:43.189Z,3.72
2018-06-17T12:50:10.704Z,3.90
2018-06-17T12:52:38.170Z,4.85
2018-06-17T12:55:05.613Z,5.90
2018-06-17T12:57:33.040Z,3.40
2018-06-17T13:00:00.493Z,5.85
2018-06-17T13:02:28.049Z,4.00
2018-06-17T13:04:55.538Z,3.53
2018-06-17T13:07:23.026Z,2.97
2018-06-17T13:09:50.482Z,3.30
2018-06-17T13:12:18.036Z,3.78
2018-06-17T13:14:45.481Z,5.30
2018-06-17T13:17:12.965Z,3.42
2018-06-17T13:19:40.616Z,3.20
2018-06-17T13:22:08.099Z,2.80
2018-06-17T13:24:36.323Z,2.97
2018-06-17T13:27:03.765Z,4.32
2018-06-17T13:29:31.159Z,2.70
2018-06-17T13:31:58.626Z,6.00
2018-06-17T13:34:26.108Z,3.95
2018-06-17T13:36:53.534Z,4.05
2018-06-17T13:39:21.062Z,3.35
2018-06-17T13:41:48.462Z,3.70
2018-06-17T13:44:15.975Z,5.53
2018-06-17T13:46:43.426Z,3.50
2018-06-17T13:49:11.621Z,3.10
2018-06-17T13:51:39.098Z,3.65
2018-06-17T13:54:06.612Z,3.95
2018-06-17T13:56:34.173Z,3.10
2018-06-17T13:59:01.681Z,2.60
2018-06-17T14:01:29.204Z,2.60
2018-06-17T14:03:56.690Z,3.03
2018-06-17T14:06:24.180Z,3.92
2018-06-17T14:08:51.659Z,4.00
2018-06-17T14:11:19.313Z,3.30
2018-06-17T14:13:46.810Z,3.15
2018-06-17T14:16:14.403Z,3.17
2018-06-17T14:18:41.907Z,3.03
2018-06-17T14:21:09.315Z,3.60
2018-06-17T14:23:36.765Z,2.78
2018-06-17T14:26:04.227Z,2.75
2018-06-17T14:28:31.709Z,3.67
2018-06-17T14:30:59.322Z,3.33
2018-06-17T14:33:26.775Z,3.55
2018-06-17T14:35:54.343Z,4.85
2018-06-17T14:38:22.583Z,3.78
2018-06-17T14:40:50.014Z,3.17
2018-06-17T14:46:11.619Z,6.05
2018-06-17T14:51:52.054Z,5.25
2018-06-17T14:54:19.511Z,7.50
2018-06-17T14:56:47.050Z,4.70
2018-06-17T14:59:14.576Z,3.75
2018-06-17T15:01:41.985Z,4.15
2018-06-17T15:04:09.541Z,3.60
2018-06-17T15:06:37.021Z,4.62
2018-06-17T15:09:04.494Z,4.12
2018-06-17T15:11:32.156Z,3.90
2018-06-17T15:13:59.682Z,4.15
2018-06-17T15:16:27.122Z,3.72
2018-06-17T15:18:54.533Z,2.67
2018-06-17T15:21:22.018Z,3.50
2018-06-17T15:23:49.478Z,3.35
2018-06-17T15:26:16.980Z,4.35
2018-06-17T15:28:44.445Z,4.28
2018-06-17T15:31:11.921Z,4.15
2018-06-17T15:36:49.240Z,4.15
2018-06-17T15:39:17.313Z,3.60
2018-06-17T15:41:45.046Z,3.60
2018-06-17T15:44:13.417Z,3.65
2018-06-17T15:46:41.005Z,4.45
2018-06-17T15:49:08.473Z,3.20
2018-06-17T15:51:35.959Z,4.35
2018-06-17T15:54:03.503Z,3.15
2018-06-17T15:56:31.067Z,4.10
2018-06-17T15:58:58.489Z,2.70
2018-06-17T16:01:25.921Z,3.28
2018-06-17T16:03:53.526Z,3.45
2018-06-17T16:06:21.014Z,3.90
2018-06-17T16:08:48.524Z,3.97
2018-06-17T16:11:15.910Z,2.95
2018-06-17T16:16:57.571Z,3.90
2018-06-17T16:19:30.904Z,4.05
2018-06-17T16:21:58.773Z,3.40
2018-06-17T16:24:27.071Z,3.37
2018-06-17T16:26:54.612Z,2.87
2018-06-17T16:29:22.026Z,3.42
2018-06-17T16:34:16.652Z,4.10
2018-06-17T16:36:44.171Z,2.80
2018-06-17T16:39:11.898Z,2.75
2018-06-17T16:41:39.353Z,2.95
2018-06-17T16:44:06.951Z,3.70
2018-06-17T16:46:34.626Z,4.05
2018-06-17T16:49:02.075Z,7.20
2018-06-17T16:51:29.585Z,3.70
2018-06-17T16:54:02.696Z,3.80
2018-06-17T16:56:35.531Z,3.50
2018-06-17T17:01:58.278Z,3.83
2018-06-17T17:04:25.909Z,2.87
2018-06-17T17:06:53.403Z,3.33
2018-06-17T17:09:20.899Z,3.67
2018-06-17T17:11:48.363Z,3.03
2018-06-17T17:14:15.807Z,2.85
2018-06-17T17:16:43.270Z,3.37
2018-06-17T17:19:10.728Z,2.97
2018-06-17T17:21:38.203Z,3.55
2018-06-17T17:24:05.734Z,2.80
2018-06-17T17:26:33.401Z,3.83
2018-06-17T17:29:00.876Z,2.92
2018-06-17T17:31:28.456Z,3.75
2018-06-17T17:34:01.569Z,2.90
2018-06-17T17:39:21.270Z,3.62
2018-06-17T17:41:48.853Z,3.35
2018-06-17T17:44:16.383Z,3.50
2018-06-17T17:46:43.775Z,3.75
2018-06-17T17:49:12.252Z,3.17
2018-06-17T17:51:39.750Z,2.60
2018-06-17T17:54:07.299Z,2.83
2018-06-17T17:56:34.763Z,3.95
2018-06-17T17:59:02.240Z,3.03
2018-06-17T18:01:30.569Z,2.45
2018-06-17T18:03:58.027Z,3.10
2018-06-17T18:06:25.493Z,3.50
2018-06-17T18:08:52.912Z,2.50
2018-06-17T18:11:20.381Z,3.00
2018-06-17T18:13:48.333Z,2.10
2018-06-17T18:16:15.876Z,3.35
2018-06-17T18:18:43.383Z,4.07
2018-06-17T18:21:10.839Z,3.30
2018-06-17T18:23:38.377Z,6.10
2018-06-17T18:29:21.539Z,4.20
2018-06-17T18:31:48.999Z,5.03
2018-06-17T18:34:22.101Z,12.25
2018-06-17T18:36:49.609Z,4.82
2018-06-17T18:39:17.148Z,3.80
2018-06-17T18:41:44.622Z,3.00
2018-06-17T18:44:12.185Z,3.15
2018-06-17T18:46:39.863Z,2.95
2018-06-17T18:49:07.584Z,3.80
2018-06-17T18:51:35.154Z,4.22
2018-06-17T18:54:02.619Z,3.17
2018-06-17T18:56:30.074Z,3.40
2018-06-17T18:58:57.530Z,4.10
2018-06-17T19:01:25.015Z,3.37
2018-06-17T19:03:52.525Z,3.60
2018-06-17T19:06:20.240Z,2.83
2018-06-17T19:08:47.733Z,3.08
2018-06-17T19:11:21.581Z,3.15
2018-06-17T19:13:53.353Z,3.65
2018-06-17T19:19:18.946Z,4.72
2018-06-17T19:21:46.452Z,2.62
2018-06-17T19:24:13.994Z,3.65
2018-06-17T19:26:41.691Z,4.40
2018-06-17T19:29:09.124Z,4.35
2018-06-17T19:31:37.876Z,3.40
2018-06-17T19:34:05.678Z,3.05
2018-06-17T19:36:33.300Z,4.20
2018-06-17T19:39:00.778Z,2.97
2018-06-17T19:41:28.263Z,3.75
2018-06-17T19:43:56.519Z,2.97
2018-06-17T19:46:24.898Z,3.62
2018-06-17T19:49:02.694Z,2.80
2018-06-17T19:54:39.018Z,3.17
2018-06-17T20:00:16.578Z,4.55
2018-06-17T20:02:45.203Z,5.43
2018-06-17T20:05:12.772Z,4.57
2018-06-17T20:07:40.182Z,3.10
2018-06-17T20:10:08.664Z,2.58
2018-06-17T20:12:36.272Z,3.60
2018-06-17T20:15:03.710Z,2.95
2018-06-17T20:17:31.248Z,2.40
2018-06-17T20:19:58.755Z,2.85
2018-06-17T20:22:26.183Z,2.92
2018-06-17T20:24:53.663Z,2.15
2018-06-17T20:27:21.064Z,3.03
2018-06-17T20:29:48.681Z,2.70
2018-06-17T20:32:16.171Z,2.03
2018-06-17T20:37:57.493Z,3.20
2018-06-17T20:40:24.931Z,2.72
2018-06-17T20:42:57.953Z,2.10
2018-06-17T20:45:25.492Z,1.90
2018-06-17T20:47:53.055Z,2.55
2018-06-17T20:50:20.631Z,2.75
2018-06-17T20:52:48.061Z,3.20
2018-06-17T20:55:15.514Z,2.67
2018-06-17T20:57:43.045Z,2.75
2018-06-17T21:00:10.516Z,2.10
2018-06-17T21:02:37.932Z,2.67
2018-06-17T21:05:05.415Z,2.40
2018-06-17T21:07:32.851Z,2.10
2018-06-17T21:10:00.316Z,2.17
2018-06-17T21:12:27.794Z,2.60
2018-06-17T21:14:55.257Z,2.10
2018-06-17T21:17:22.716Z,1.80
2018-06-17T21:19:55.877Z,2.03
2018-06-17T21:25:31.991Z,4.37
2018-06-17T21:27:59.455Z,1.90
2018-06-17T21:30:26.928Z,2.78
2018-06-17T21:32:54.437Z,3.92
2018-06-17T21:35:21.876Z,2.40
2018-06-17T21:37:49.397Z,1.92
2018-06-17T21:40:16.852Z,1.77
2018-06-17T21:42:44.289Z,2.15
2018-06-17T21:45:11.789Z,1.92
2018-06-17T21:47:39.234Z,2.00
2018-06-17T21:50:06.718Z,2.58
2018-06-17T21:52:34.138Z,2.62
2018-06-17T21:55:01.655Z,3.00
2018-06-17T21:57:29.106Z,2.55
2018-06-17T21:59:56.542Z,2.12
2018-06-17T22:02:23.951Z,2.25
2018-06-17T22:04:51.684Z,2.17
2018-06-17T22:07:19.213Z,2.40
2018-06-17T22:09:52.360Z,2.10
2018-06-17T22:15:31.726Z,2.58
2018-06-17T22:17:59.211Z,2.40
2018-06-17T22:20:26.659Z,2.10
2018-06-17T22:22:54.141Z,1.75
2018-06-17T22:25:21.636Z,2.90
2018-06-17T22:27:49.274Z,1.60
2018-06-17T22:30:16.834Z,2.15
2018-06-17T22:32:44.316Z,2.20
2018-06-17T22:35:11.752Z,1.92
2018-06-17T22:37:39.266Z,2.50
2018-06-17T22:40:06.670Z,3.15
2018-06-17T22:42:34.689Z,1.83
2018-06-17T22:45:02.194Z,1.58
2018-06-17T22:47:29.663Z,2.05
2018-06-17T22:49:57.194Z,1.80
2018-06-17T22:52:24.701Z,1.25
2018-06-17T22:54:52.123Z,1.95
2018-06-17T23:00:26.695Z,2.40
2018-06-17T23:06:09.111Z,3.20
2018-06-17T23:11:28.829Z,2.92
2018-06-17T23:13:56.303Z,2.75
2018-06-17T23:16:24.077Z,3.47
2018-06-17T23:18:51.567Z,2.65
2018-06-17T23:21:19.038Z,2.20
2018-06-17T23:23:46.554Z,1.73
2018-06-17T23:26:14.009Z,2.20
2018-06-17T23:28:41.411Z,1.58
2018-06-17T23:31:08.894Z,2.78
2018-06-17T23:33:36.369Z,2.40
2018-06-17T23:36:03.898Z,1.75
2018-06-17T23:38:31.422Z,2.00
2018-06-17T23:40:58.899Z,1.92
2018-06-17T23:43:26.343Z,2.25
2018-06-17T23:45:53.754Z,1.98
2018-06-17T23:51:28.329Z,3.30
2018-06-17T23:56:48.920Z,2.70
2018-06-17T23:59:17.370Z,2.50
